sensor_id;sensor_type;location;lat;lon;timestamp;P1;durP1;ratioP1;P2;durP2;ratioP2
22851;SDS011;11592;45.460;9.240;2023-06-01T00:01:28;10.98;;;7.03;;
22851;SDS011;11592;45.460;9.240;2023-06-01T00:03:59;11.88;;;6.72;;
22851;SDS011;11592;45.460;9.240;2023-06-01T00:06:26;12.88;;;7.32;;
22851;SDS011;11592;45.460;9.240;2023-06-01T00:08:54;11.18;;;6.68;;
22851;SDS011;11592;45.460;9.240;2023-06-01T00:11:21;11.85;;;6.95;;
22851;SDS011;11592;45.460;9.240;2023-06-01T00:13:49;15.27;;;7.80;;
22851;SDS011;11592;45.460;9.240;2023-06-01T00:16:16;11.32;;;6.50;;
22851;SDS011;11592;45.460;9.240;2023-06-01T00:18:43;15.55;;;6.47;;
22851;SDS011;11592;45.460;9.240;2023-06-01T00:21:11;10.85;;;6.63;;
22851;SDS011;11592;45.460;9.240;2023-06-01T00:23:38;15.70;;;6.90;;
22851;SDS011;11592;45.460;9.240;2023-06-01T00:26:07;9.25;;;6.38;;
22851;SDS011;11592;45.460;9.240;2023-06-01T00:28:34;11.85;;;7.05;;
22851;SDS011;11592;45.460;9.240;2023-06-01T00:31:01;11.20;;;6.78;;
22851;SDS011;11592;45.460;9.240;2023-06-01T00:33:28;12.45;;;6.90;;
22851;SDS011;11592;45.460;9.240;2023-06-01T00:35:55;11.07;;;7.07;;
22851;SDS011;11592;45.460;9.240;2023-06-01T00:38:22;11.93;;;7.53;;
22851;SDS011;11592;45.460;9.240;2023-06-01T00:40:49;11.23;;;7.03;;
22851;SDS011;11592;45.460;9.240;2023-06-01T00:43:17;12.70;;;7.43;;
22851;SDS011;11592;45.460;9.240;2023-06-01T00:45:44;19.77;;;8.00;;
22851;SDS011;11592;45.460;9.240;2023-06-01T00:48:12;15.40;;;7.90;;
22851;SDS011;11592;45.460;9.240;2023-06-01T00:50:40;13.80;;;7.85;;
22851;SDS011;11592;45.460;9.240;2023-06-01T00:53:08;13.50;;;7.43;;
22851;SDS011;11592;45.460;9.240;2023-06-01T00:55:41;12.90;;;7.55;;
22851;SDS011;11592;45.460;9.240;2023-06-01T00:58:09;11.65;;;7.50;;
22851;SDS011;11592;45.460;9.240;2023-06-01T01:00:36;14.25;;;7.75;;
22851;SDS011;11592;45.460;9.240;2023-06-01T01:03:06;14.30;;;8.38;;
22851;SDS011;11592;45.460;9.240;2023-06-01T01:05:36;14.07;;;7.75;;
22851;SDS011;11592;45.460;9.240;2023-06-01T01:08:07;15.18;;;8.57;;
22851;SDS011;11592;45.460;9.240;2023-06-01T01:10:45;13.88;;;8.27;;
22851;SDS011;11592;45.460;9.240;2023-06-01T01:13:23;13.93;;;8.05;;
22851;SDS011;11592;45.460;9.240;2023-06-01T01:16:02;14.98;;;8.05;;
22851;SDS011;11592;45.460;9.240;2023-06-01T01:18:40;15.75;;;8.70;;
22851;SDS011;11592;45.460;9.240;2023-06-01T01:21:11;13.02;;;8.30;;
22851;SDS011;11592;45.460;9.240;2023-06-01T01:30:18;14.25;;;8.30;;
22851;SDS011;11592;45.460;9.240;2023-06-01T01:32:49;14.27;;;8.93;;
22851;SDS011;11592;45.460;9.240;2023-06-01T01:35:17;16.27;;;8.50;;
22851;SDS011;11592;45.460;9.240;2023-06-01T01:37:51;17.67;;;8.68;;
22851;SDS011;11592;45.460;9.240;2023-06-01T01:40:18;13.80;;;8.82;;
22851;SDS011;11592;45.460;9.240;2023-06-01T01:42:46;14.77;;;9.10;;
22851;SDS011;11592;45.460;9.240;2023-06-01T01:45:14;15.65;;;8.73;;
22851;SDS011;11592;45.460;9.240;2023-06-01T01:47:49;16.40;;;8.70;;
22851;SDS011;11592;45.460;9.240;2023-06-01T01:50:31;14.65;;;8.60;;
22851;SDS011;11592;45.460;9.240;2023-06-01T01:53:02;12.73;;;7.90;;
22851;SDS011;11592;45.460;9.240;2023-06-01T01:55:33;18.33;;;8.65;;
22851;SDS011;11592;45.460;9.240;2023-06-01T01:58:01;22.35;;;8.07;;
22851;SDS011;11592;45.460;9.240;2023-06-01T02:00:29;14.63;;;9.10;;
22851;SDS011;11592;45.460;9.240;2023-06-01T02:02:58;16.67;;;8.40;;
22851;SDS011;11592;45.460;9.240;2023-06-01T02:05:26;14.85;;;8.70;;
22851;SDS011;11592;45.460;9.240;2023-06-01T02:07:53;16.15;;;9.68;;
22851;SDS011;11592;45.460;9.240;2023-06-01T02:10:20;14.07;;;8.27;;
22851;SDS011;11592;45.460;9.240;2023-06-01T02:12:47;15.60;;;8.27;;
22851;SDS011;11592;45.460;9.240;2023-06-01T02:15:14;16.65;;;8.20;;
22851;SDS011;11592;45.460;9.240;2023-06-01T02:17:40;13.35;;;7.22;;
22851;SDS011;11592;45.460;9.240;2023-06-01T02:20:12;15.38;;;7.78;;
22851;SDS011;11592;45.460;9.240;2023-06-01T02:22:39;16.55;;;8.18;;
22851;SDS011;11592;45.460;9.240;2023-06-01T02:25:05;13.70;;;8.30;;
22851;SDS011;11592;45.460;9.240;2023-06-01T02:27:33;16.33;;;8.05;;
22851;SDS011;11592;45.460;9.240;2023-06-01T02:29:59;16.85;;;7.82;;
22851;SDS011;11592;45.460;9.240;2023-06-01T02:32:26;14.35;;;7.65;;
22851;SDS011;11592;45.460;9.240;2023-06-01T02:34:53;16.10;;;7.85;;
22851;SDS011;11592;45.460;9.240;2023-06-01T02:37:20;14.85;;;8.20;;
22851;SDS011;11592;45.460;9.240;2023-06-01T02:39:46;13.50;;;7.43;;
22851;SDS011;11592;45.460;9.240;2023-06-01T02:42:14;11.13;;;7.60;;
22851;SDS011;11592;45.460;9.240;2023-06-01T02:44:40;16.80;;;8.52;;
22851;SDS011;11592;45.460;9.240;2023-06-01T02:47:07;12.55;;;7.65;;
22851;SDS011;11592;45.460;9.240;2023-06-01T02:49:36;12.85;;;7.20;;
22851;SDS011;11592;45.460;9.240;2023-06-01T02:52:02;11.40;;;7.32;;
22851;SDS011;11592;45.460;9.240;2023-06-01T02:54:29;11.38;;;7.30;;
22851;SDS011;11592;45.460;9.240;2023-06-01T02:56:56;11.63;;;7.82;;
22851;SDS011;11592;45.460;9.240;2023-06-01T02:59:23;12.25;;;7.55;;
22851;SDS011;11592;45.460;9.240;2023-06-01T03:01:51;14.05;;;7.50;;
22851;SDS011;11592;45.460;9.240;2023-06-01T03:04:17;14.88;;;7.95;;
22851;SDS011;11592;45.460;9.240;2023-06-01T03:06:45;11.20;;;7.00;;
22851;SDS011;11592;45.460;9.240;2023-06-01T03:09:12;11.77;;;7.85;;
22851;SDS011;11592;45.460;9.240;2023-06-01T03:11:41;15.55;;;7.35;;
22851;SDS011;11592;45.460;9.240;2023-06-01T03:14:08;15.20;;;7.47;;
22851;SDS011;11592;45.460;9.240;2023-06-01T03:16:35;14.20;;;7.35;;
22851;SDS011;11592;45.460;9.240;2023-06-01T03:19:02;15.23;;;7.47;;
22851;SDS011;11592;45.460;9.240;2023-06-01T03:21:29;11.65;;;6.72;;
22851;SDS011;11592;45.460;9.240;2023-06-01T03:23:58;16.10;;;8.05;;
22851;SDS011;11592;45.460;9.240;2023-06-01T03:26:25;15.88;;;7.50;;
22851;SDS011;11592;45.460;9.240;2023-06-01T03:28:51;14.95;;;7.13;;
22851;SDS011;11592;45.460;9.240;2023-06-01T03:31:18;12.23;;;7.43;;
22851;SDS011;11592;45.460;9.240;2023-06-01T03:33:45;18.08;;;7.75;;
22851;SDS011;11592;45.460;9.240;2023-06-01T03:36:12;16.30;;;7.75;;
22851;SDS011;11592;45.460;9.240;2023-06-01T03:38:39;17.42;;;7.22;;
22851;SDS011;11592;45.460;9.240;2023-06-01T03:41:06;14.95;;;7.55;;
22851;SDS011;11592;45.460;9.240;2023-06-01T03:43:32;10.20;;;6.68;;
22851;SDS011;11592;45.460;9.240;2023-06-01T03:45:59;15.93;;;7.57;;
22851;SDS011;11592;45.460;9.240;2023-06-01T03:48:26;13.63;;;7.97;;
22851;SDS011;11592;45.460;9.240;2023-06-01T03:50:53;15.20;;;8.18;;
22851;SDS011;11592;45.460;9.240;2023-06-01T03:53:20;15.63;;;7.30;;
22851;SDS011;11592;45.460;9.240;2023-06-01T03:55:48;14.70;;;7.50;;
22851;SDS011;11592;45.460;9.240;2023-06-01T03:58:18;12.13;;;7.25;;
22851;SDS011;11592;45.460;9.240;2023-06-01T04:00:48;13.45;;;6.53;;
22851;SDS011;11592;45.460;9.240;2023-06-01T04:03:15;15.50;;;7.35;;
22851;SDS011;11592;45.460;9.240;2023-06-01T04:05:42;15.38;;;7.18;;
22851;SDS011;11592;45.460;9.240;2023-06-01T04:08:14;14.10;;;6.45;;
22851;SDS011;11592;45.460;9.240;2023-06-01T04:10:41;9.85;;;6.95;;
22851;SDS011;11592;45.460;9.240;2023-06-01T04:13:08;14.10;;;6.38;;
22851;SDS011;11592;45.460;9.240;2023-06-01T04:15:35;13.00;;;7.40;;
22851;SDS011;11592;45.460;9.240;2023-06-01T04:18:01;13.63;;;6.93;;
22851;SDS011;11592;45.460;9.240;2023-06-01T04:20:28;10.93;;;6.63;;
22851;SDS011;11592;45.460;9.240;2023-06-01T04:22:57;11.98;;;6.47;;
22851;SDS011;11592;45.460;9.240;2023-06-01T04:25:24;11.10;;;6.40;;
22851;SDS011;11592;45.460;9.240;2023-06-01T04:27:51;9.43;;;6.00;;
22851;SDS011;11592;45.460;9.240;2023-06-01T04:30:18;10.77;;;6.88;;
22851;SDS011;11592;45.460;9.240;2023-06-01T04:32:46;12.55;;;6.85;;
22851;SDS011;11592;45.460;9.240;2023-06-01T04:35:15;10.57;;;6.30;;
22851;SDS011;11592;45.460;9.240;2023-06-01T04:37:42;9.77;;;6.60;;
22851;SDS011;11592;45.460;9.240;2023-06-01T04:40:10;12.10;;;6.55;;
22851;SDS011;11592;45.460;9.240;2023-06-01T04:42:39;10.07;;;5.75;;
22851;SDS011;11592;45.460;9.240;2023-06-01T04:45:08;13.88;;;6.28;;
22851;SDS011;11592;45.460;9.240;2023-06-01T04:47:36;10.95;;;6.20;;
22851;SDS011;11592;45.460;9.240;2023-06-01T04:50:06;10.57;;;5.95;;
22851;SDS011;11592;45.460;9.240;2023-06-01T04:52:39;11.05;;;6.35;;
22851;SDS011;11592;45.460;9.240;2023-06-01T04:55:08;15.10;;;6.28;;
22851;SDS011;11592;45.460;9.240;2023-06-01T04:57:36;11.10;;;5.70;;
22851;SDS011;11592;45.460;9.240;2023-06-01T05:00:06;12.77;;;5.90;;
22851;SDS011;11592;45.460;9.240;2023-06-01T05:02:40;9.60;;;5.53;;
22851;SDS011;11592;45.460;9.240;2023-06-01T05:05:09;11.27;;;5.50;;
22851;SDS011;11592;45.460;9.240;2023-06-01T05:07:37;11.15;;;5.22;;
22851;SDS011;11592;45.460;9.240;2023-06-01T05:10:08;10.95;;;6.00;;
22851;SDS011;11592;45.460;9.240;2023-06-01T05:12:38;11.32;;;5.53;;
22851;SDS011;11592;45.460;9.240;2023-06-01T05:15:06;8.65;;;5.63;;
22851;SDS011;11592;45.460;9.240;2023-06-01T05:17:34;7.75;;;5.22;;
22851;SDS011;11592;45.460;9.240;2023-06-01T05:20:01;12.43;;;6.43;;
22851;SDS011;11592;45.460;9.240;2023-06-01T05:22:29;9.00;;;5.57;;
22851;SDS011;11592;45.460;9.240;2023-06-01T05:24:56;8.65;;;5.65;;
22851;SDS011;11592;45.460;9.240;2023-06-01T05:27:23;10.73;;;5.80;;
22851;SDS011;11592;45.460;9.240;2023-06-01T05:29:50;12.32;;;5.55;;
22851;SDS011;11592;45.460;9.240;2023-06-01T05:32:17;10.18;;;5.47;;
22851;SDS011;11592;45.460;9.240;2023-06-01T05:34:44;13.93;;;6.60;;
22851;SDS011;11592;45.460;9.240;2023-06-01T05:37:11;11.45;;;6.38;;
22851;SDS011;11592;45.460;9.240;2023-06-01T05:39:38;12.23;;;6.00;;
22851;SDS011;11592;45.460;9.240;2023-06-01T05:42:05;8.85;;;5.90;;
22851;SDS011;11592;45.460;9.240;2023-06-01T05:44:32;15.13;;;5.53;;
22851;SDS011;11592;45.460;9.240;2023-06-01T05:46:59;10.27;;;6.07;;
22851;SDS011;11592;45.460;9.240;2023-06-01T05:49:28;16.15;;;6.28;;
22851;SDS011;11592;45.460;9.240;2023-06-01T05:51:57;11.43;;;6.05;;
22851;SDS011;11592;45.460;9.240;2023-06-01T05:54:24;9.15;;;5.35;;
22851;SDS011;11592;45.460;9.240;2023-06-01T05:56:54;11.20;;;5.72;;
22851;SDS011;11592;45.460;9.240;2023-06-01T05:59:21;12.70;;;5.70;;
22851;SDS011;11592;45.460;9.240;2023-06-01T06:01:48;9.35;;;5.90;;
22851;SDS011;11592;45.460;9.240;2023-06-01T06:04:15;8.88;;;5.43;;
22851;SDS011;11592;45.460;9.240;2023-06-01T06:06:42;11.77;;;6.07;;
22851;SDS011;11592;45.460;9.240;2023-06-01T06:09:09;14.25;;;6.43;;
22851;SDS011;11592;45.460;9.240;2023-06-01T06:11:38;8.43;;;5.55;;
22851;SDS011;11592;45.460;9.240;2023-06-01T06:14:05;11.05;;;5.72;;
22851;SDS011;11592;45.460;9.240;2023-06-01T06:16:32;9.98;;;5.63;;
22851;SDS011;11592;45.460;9.240;2023-06-01T06:18:59;14.85;;;5.82;;
22851;SDS011;11592;45.460;9.240;2023-06-01T06:21:26;11.27;;;6.05;;
22851;SDS011;11592;45.460;9.240;2023-06-01T06:23:53;11.88;;;5.47;;
22851;SDS011;11592;45.460;9.240;2023-06-01T06:26:25;10.60;;;6.18;;
22851;SDS011;11592;45.460;9.240;2023-06-01T06:28:53;11.55;;;6.43;;
22851;SDS011;11592;45.460;9.240;2023-06-01T06:31:20;12.82;;;6.20;;
22851;SDS011;11592;45.460;9.240;2023-06-01T06:33:47;11.68;;;6.57;;
22851;SDS011;11592;45.460;9.240;2023-06-01T06:36:14;10.68;;;6.05;;
22851;SDS011;11592;45.460;9.240;2023-06-01T06:38:42;13.20;;;6.22;;
22851;SDS011;11592;45.460;9.240;2023-06-01T06:41:09;11.27;;;6.60;;
22851;SDS011;11592;45.460;9.240;2023-06-01T06:43:36;9.68;;;5.57;;
22851;SDS011;11592;45.460;9.240;2023-06-01T06:46:03;13.70;;;6.20;;
22851;SDS011;11592;45.460;9.240;2023-06-01T06:48:30;11.40;;;6.18;;
22851;SDS011;11592;45.460;9.240;2023-06-01T06:50:57;13.75;;;6.50;;
22851;SDS011;11592;45.460;9.240;2023-06-01T06:53:23;11.88;;;5.43;;
22851;SDS011;11592;45.460;9.240;2023-06-01T06:55:50;10.88;;;6.00;;
22851;SDS011;11592;45.460;9.240;2023-06-01T06:58:17;12.73;;;5.72;;
22851;SDS011;11592;45.460;9.240;2023-06-01T07:00:44;9.30;;;5.18;;
22851;SDS011;11592;45.460;9.240;2023-06-01T07:03:11;13.65;;;5.95;;
22851;SDS011;11592;45.460;9.240;2023-06-01T07:05:38;10.95;;;6.03;;
22851;SDS011;11592;45.460;9.240;2023-06-01T07:08:04;14.40;;;6.38;;
22851;SDS011;11592;45.460;9.240;2023-06-01T07:10:31;9.43;;;5.80;;
22851;SDS011;11592;45.460;9.240;2023-06-01T07:12:58;12.88;;;5.40;;
22851;SDS011;11592;45.460;9.240;2023-06-01T07:15:25;10.75;;;5.53;;
22851;SDS011;11592;45.460;9.240;2023-06-01T07:17:52;14.05;;;5.85;;
22851;SDS011;11592;45.460;9.240;2023-06-01T07:20:19;10.93;;;5.65;;
22851;SDS011;11592;45.460;9.240;2023-06-01T07:22:46;8.77;;;4.70;;
22851;SDS011;11592;45.460;9.240;2023-06-01T07:25:13;9.43;;;5.10;;
22851;SDS011;11592;45.460;9.240;2023-06-01T07:27:40;12.35;;;5.80;;
22851;SDS011;11592;45.460;9.240;2023-06-01T07:30:09;8.02;;;4.90;;
22851;SDS011;11592;45.460;9.240;2023-06-01T07:32:38;8.05;;;4.88;;
22851;SDS011;11592;45.460;9.240;2023-06-01T07:35:05;9.13;;;5.30;;
22851;SDS011;11592;45.460;9.240;2023-06-01T07:37:33;9.30;;;5.03;;
22851;SDS011;11592;45.460;9.240;2023-06-01T07:40:00;7.85;;;5.28;;
22851;SDS011;11592;45.460;9.240;2023-06-01T07:42:30;8.57;;;4.60;;
22851;SDS011;11592;45.460;9.240;2023-06-01T07:44:57;8.50;;;5.20;;
22851;SDS011;11592;45.460;9.240;2023-06-01T07:47:24;10.95;;;4.90;;
22851;SDS011;11592;45.460;9.240;2023-06-01T07:49:52;9.43;;;5.53;;
22851;SDS011;11592;45.460;9.240;2023-06-01T07:52:18;7.63;;;4.72;;
22851;SDS011;11592;45.460;9.240;2023-06-01T07:54:45;9.50;;;5.10;;
22851;SDS011;11592;45.460;9.240;2023-06-01T07:57:13;7.75;;;4.80;;
22851;SDS011;11592;45.460;9.240;2023-06-01T07:59:40;12.27;;;5.63;;
22851;SDS011;11592;45.460;9.240;2023-06-01T08:02:08;7.70;;;5.00;;
22851;SDS011;11592;45.460;9.240;2023-06-01T08:04:37;12.98;;;5.05;;
22851;SDS011;11592;45.460;9.240;2023-06-01T08:07:05;7.15;;;5.15;;
22851;SDS011;11592;45.460;9.240;2023-06-01T08:09:33;10.02;;;5.60;;
22851;SDS011;11592;45.460;9.240;2023-06-01T08:12:04;9.73;;;5.47;;
22851;SDS011;11592;45.460;9.240;2023-06-01T08:14:31;10.32;;;5.40;;
22851;SDS011;11592;45.460;9.240;2023-06-01T08:17:03;9.85;;;5.28;;
22851;SDS011;11592;45.460;9.240;2023-06-01T08:19:34;14.18;;;5.72;;
22851;SDS011;11592;45.460;9.240;2023-06-01T08:22:01;9.30;;;5.40;;
22851;SDS011;11592;45.460;9.240;2023-06-01T08:24:30;11.68;;;6.15;;
22851;SDS011;11592;45.460;9.240;2023-06-01T08:26:58;11.65;;;6.10;;
22851;SDS011;11592;45.460;9.240;2023-06-01T08:29:25;7.80;;;4.85;;
22851;SDS011;11592;45.460;9.240;2023-06-01T08:32:07;10.60;;;6.15;;
22851;SDS011;11592;45.460;9.240;2023-06-01T08:34:35;9.45;;;5.75;;
22851;SDS011;11592;45.460;9.240;2023-06-01T08:37:02;13.57;;;5.68;;
22851;SDS011;11592;45.460;9.240;2023-06-01T08:39:29;9.63;;;5.18;;
22851;SDS011;11592;45.460;9.240;2023-06-01T08:42:09;11.20;;;6.30;;
22851;SDS011;11592;45.460;9.240;2023-06-01T08:44:39;7.80;;;5.25;;
22851;SDS011;11592;45.460;9.240;2023-06-01T08:47:08;14.88;;;6.22;;
22851;SDS011;11592;45.460;9.240;2023-06-01T08:49:35;14.10;;;6.30;;
22851;SDS011;11592;45.460;9.240;2023-06-01T08:52:06;10.70;;;5.68;;
22851;SDS011;11592;45.460;9.240;2023-06-01T08:54:37;9.40;;;5.78;;
22851;SDS011;11592;45.460;9.240;2023-06-01T08:57:05;13.50;;;6.05;;
22851;SDS011;11592;45.460;9.240;2023-06-01T08:59:36;12.95;;;5.65;;
22851;SDS011;11592;45.460;9.240;2023-06-01T09:02:05;11.20;;;7.35;;
22851;SDS011;11592;45.460;9.240;2023-06-01T09:04:32;13.25;;;7.43;;
22851;SDS011;11592;45.460;9.240;2023-06-01T09:07:01;9.02;;;6.22;;
22851;SDS011;11592;45.460;9.240;2023-06-01T09:09:29;11.15;;;6.20;;
22851;SDS011;11592;45.460;9.240;2023-06-01T09:15:12;8.23;;;6.23;;
22851;SDS011;11592;45.460;9.240;2023-06-01T09:17:43;24.65;;;6.55;;
22851;SDS011;11592;45.460;9.240;2023-06-01T09:20:25;15.15;;;6.80;;
22851;SDS011;11592;45.460;9.240;2023-06-01T09:22:54;9.65;;;6.35;;
22851;SDS011;11592;45.460;9.240;2023-06-01T09:25:25;12.88;;;6.70;;
22851;SDS011;11592;45.460;9.240;2023-06-01T09:27:54;16.63;;;6.85;;
22851;SDS011;11592;45.460;9.240;2023-06-01T09:30:22;11.15;;;6.90;;
22851;SDS011;11592;45.460;9.240;2023-06-01T09:33:06;9.95;;;6.50;;
22851;SDS011;11592;45.460;9.240;2023-06-01T09:35:40;10.48;;;6.88;;
22851;SDS011;11592;45.460;9.240;2023-06-01T09:38:08;13.18;;;6.35;;
22851;SDS011;11592;45.460;9.240;2023-06-01T09:40:36;12.98;;;8.00;;
22851;SDS011;11592;45.460;9.240;2023-06-01T09:43:20;11.48;;;6.10;;
22851;SDS011;11592;45.460;9.240;2023-06-01T09:46:03;11.82;;;7.90;;
22851;SDS011;11592;45.460;9.240;2023-06-01T09:48:34;14.10;;;8.05;;
22851;SDS011;11592;45.460;9.240;2023-06-01T09:51:01;13.73;;;7.25;;
22851;SDS011;11592;45.460;9.240;2023-06-01T09:53:39;14.43;;;7.22;;
22851;SDS011;11592;45.460;9.240;2023-06-01T09:56:07;14.38;;;7.50;;
22851;SDS011;11592;45.460;9.240;2023-06-01T09:58:33;12.15;;;7.45;;
22851;SDS011;11592;45.460;9.240;2023-06-01T10:01:06;14.27;;;8.07;;
22851;SDS011;11592;45.460;9.240;2023-06-01T10:03:40;11.68;;;7.95;;
22851;SDS011;11592;45.460;9.240;2023-06-01T10:06:12;13.23;;;7.88;;
22851;SDS011;11592;45.460;9.240;2023-06-01T10:08:41;12.38;;;7.85;;
22851;SDS011;11592;45.460;9.240;2023-06-01T10:11:08;13.82;;;7.22;;
22851;SDS011;11592;45.460;9.240;2023-06-01T10:13:36;13.15;;;7.22;;
22851;SDS011;11592;45.460;9.240;2023-06-01T10:16:02;11.52;;;7.35;;
22851;SDS011;11592;45.460;9.240;2023-06-01T10:18:31;10.25;;;6.50;;
22851;SDS011;11592;45.460;9.240;2023-06-01T10:20:58;13.13;;;7.63;;
22851;SDS011;11592;45.460;9.240;2023-06-01T10:23:26;10.95;;;7.05;;
22851;SDS011;11592;45.460;9.240;2023-06-01T10:25:57;10.82;;;5.97;;
22851;SDS011;11592;45.460;9.240;2023-06-01T10:28:31;11.20;;;7.55;;
22851;SDS011;11592;45.460;9.240;2023-06-01T10:34:04;13.82;;;7.03;;
22851;SDS011;11592;45.460;9.240;2023-06-01T10:39:21;15.43;;;8.00;;
22851;SDS011;11592;45.460;9.240;2023-06-01T10:41:49;18.75;;;8.13;;
22851;SDS011;11592;45.460;9.240;2023-06-01T10:47:05;11.27;;;7.38;;
22851;SDS011;11592;45.460;9.240;2023-06-01T10:57:38;13.88;;;8.40;;
22851;SDS011;11592;45.460;9.240;2023-06-01T11:24:12;11.85;;;7.13;;
22851;SDS011;11592;45.460;9.240;2023-06-01T11:29:08;15.95;;;7.50;;
22851;SDS011;11592;45.460;9.240;2023-06-01T11:31:47;11.80;;;7.00;;
22851;SDS011;11592;45.460;9.240;2023-06-01T11:34:27;14.23;;;7.78;;
22851;SDS011;11592;45.460;9.240;2023-06-01T11:36:57;13.10;;;7.82;;
22851;SDS011;11592;45.460;9.240;2023-06-01T11:39:25;12.25;;;8.50;;
22851;SDS011;11592;45.460;9.240;2023-06-01T11:42:08;13.85;;;7.10;;
22851;SDS011;11592;45.460;9.240;2023-06-01T11:44:37;12.60;;;7.75;;
22851;SDS011;11592;45.460;9.240;2023-06-01T11:47:06;10.65;;;6.60;;
22851;SDS011;11592;45.460;9.240;2023-06-01T11:52:11;10.55;;;7.35;;
22851;SDS011;11592;45.460;9.240;2023-06-01T11:54:38;13.05;;;7.22;;
22851;SDS011;11592;45.460;9.240;2023-06-01T11:57:05;12.85;;;8.23;;
22851;SDS011;11592;45.460;9.240;2023-06-01T11:59:40;11.10;;;6.57;;
22851;SDS011;11592;45.460;9.240;2023-06-01T12:02:24;12.63;;;7.70;;
22851;SDS011;11592;45.460;9.240;2023-06-01T12:04:54;13.95;;;6.50;;
22851;SDS011;11592;45.460;9.240;2023-06-01T12:07:26;9.75;;;6.45;;
22851;SDS011;11592;45.460;9.240;2023-06-01T12:09:54;14.45;;;5.78;;
22851;SDS011;11592;45.460;9.240;2023-06-01T12:12:23;11.93;;;7.35;;
22851;SDS011;11592;45.460;9.240;2023-06-01T12:14:51;11.45;;;7.03;;
22851;SDS011;11592;45.460;9.240;2023-06-01T12:17:18;8.82;;;6.55;;
22851;SDS011;11592;45.460;9.240;2023-06-01T12:19:46;9.15;;;6.05;;
22851;SDS011;11592;45.460;9.240;2023-06-01T12:22:14;19.58;;;7.63;;
22851;SDS011;11592;45.460;9.240;2023-06-01T12:24:43;8.27;;;6.03;;
22851;SDS011;11592;45.460;9.240;2023-06-01T12:27:14;17.90;;;7.15;;
22851;SDS011;11592;45.460;9.240;2023-06-01T12:29:43;13.20;;;7.00;;
22851;SDS011;11592;45.460;9.240;2023-06-01T12:32:14;13.68;;;7.70;;
22851;SDS011;11592;45.460;9.240;2023-06-01T12:34:44;13.07;;;6.60;;
22851;SDS011;11592;45.460;9.240;2023-06-01T12:37:28;11.88;;;6.53;;
22851;SDS011;11592;45.460;9.240;2023-06-01T12:39:56;10.48;;;6.65;;
22851;SDS011;11592;45.460;9.240;2023-06-01T12:42:36;9.15;;;6.00;;
22851;SDS011;11592;45.460;9.240;2023-06-01T12:45:04;10.35;;;6.28;;
22851;SDS011;11592;45.460;9.240;2023-06-01T12:47:40;11.13;;;5.72;;
22851;SDS011;11592;45.460;9.240;2023-06-01T12:52:36;13.20;;;5.88;;
22851;SDS011;11592;45.460;9.240;2023-06-01T12:55:04;6.97;;;5.13;;
22851;SDS011;11592;45.460;9.240;2023-06-01T12:57:32;14.55;;;6.05;;
22851;SDS011;11592;45.460;9.240;2023-06-01T13:00:00;14.13;;;6.18;;
22851;SDS011;11592;45.460;9.240;2023-06-01T13:02:28;11.32;;;6.10;;
22851;SDS011;11592;45.460;9.240;2023-06-01T13:04:55;8.20;;;5.78;;
22851;SDS011;11592;45.460;9.240;2023-06-01T13:07:24;12.13;;;6.85;;
22851;SDS011;11592;45.460;9.240;2023-06-01T13:09:51;12.95;;;5.97;;
22851;SDS011;11592;45.460;9.240;2023-06-01T13:12:19;14.55;;;6.03;;
22851;SDS011;11592;45.460;9.240;2023-06-01T13:14:46;9.50;;;5.20;;
22851;SDS011;11592;45.460;9.240;2023-06-01T13:17:12;13.65;;;6.05;;
22851;SDS011;11592;45.460;9.240;2023-06-01T13:19:39;9.68;;;5.57;;
22851;SDS011;11592;45.460;9.240;2023-06-01T13:22:09;11.57;;;6.07;;
22851;SDS011;11592;45.460;9.240;2023-06-01T13:24:36;11.43;;;6.50;;
22851;SDS011;11592;45.460;9.240;2023-06-01T13:27:06;14.15;;;6.53;;
22851;SDS011;11592;45.460;9.240;2023-06-01T13:29:33;11.63;;;6.95;;
22851;SDS011;11592;45.460;9.240;2023-06-01T13:32:00;9.80;;;5.18;;
22851;SDS011;11592;45.460;9.240;2023-06-01T13:34:27;11.25;;;5.13;;
22851;SDS011;11592;45.460;9.240;2023-06-01T13:36:54;10.55;;;6.22;;
22851;SDS011;11592;45.460;9.240;2023-06-01T13:39:23;11.43;;;6.13;;
22851;SDS011;11592;45.460;9.240;2023-06-01T13:41:51;7.25;;;4.72;;
22851;SDS011;11592;45.460;9.240;2023-06-01T13:44:17;13.07;;;6.93;;
22851;SDS011;11592;45.460;9.240;2023-06-01T13:46:45;13.57;;;5.72;;
22851;SDS011;11592;45.460;9.240;2023-06-01T13:49:12;7.22;;;4.93;;
22851;SDS011;11592;45.460;9.240;2023-06-01T13:51:39;8.70;;;6.22;;
22851;SDS011;11592;45.460;9.240;2023-06-01T13:54:06;8.52;;;5.40;;
22851;SDS011;11592;45.460;9.240;2023-06-01T13:56:32;12.52;;;5.55;;
22851;SDS011;11592;45.460;9.240;2023-06-01T13:58:59;9.15;;;5.90;;
22851;SDS011;11592;45.460;9.240;2023-06-01T14:01:26;17.70;;;6.75;;
22851;SDS011;11592;45.460;9.240;2023-06-01T14:03:53;8.57;;;5.80;;
22851;SDS011;11592;45.460;9.240;2023-06-01T14:06:20;9.93;;;5.85;;
22851;SDS011;11592;45.460;9.240;2023-06-01T14:08:47;10.50;;;5.30;;
22851;SDS011;11592;45.460;9.240;2023-06-01T14:11:15;7.82;;;5.93;;
22851;SDS011;11592;45.460;9.240;2023-06-01T14:13:42;12.65;;;5.70;;
22851;SDS011;11592;45.460;9.240;2023-06-01T14:16:08;10.65;;;5.35;;
22851;SDS011;11592;45.460;9.240;2023-06-01T14:18:35;12.10;;;5.75;;
22851;SDS011;11592;45.460;9.240;2023-06-01T14:21:02;9.60;;;6.10;;
22851;SDS011;11592;45.460;9.240;2023-06-01T14:23:29;9.27;;;5.95;;
22851;SDS011;11592;45.460;9.240;2023-06-01T14:25:56;11.43;;;6.15;;
22851;SDS011;11592;45.460;9.240;2023-06-01T14:28:23;10.00;;;6.68;;
22851;SDS011;11592;45.460;9.240;2023-06-01T14:30:50;9.13;;;5.97;;
22851;SDS011;11592;45.460;9.240;2023-06-01T14:33:16;11.27;;;5.20;;
22851;SDS011;11592;45.460;9.240;2023-06-01T14:35:43;9.38;;;5.60;;
22851;SDS011;11592;45.460;9.240;2023-06-01T14:38:10;8.20;;;5.55;;
22851;SDS011;11592;45.460;9.240;2023-06-01T14:40:37;10.73;;;5.82;;
22851;SDS011;11592;45.460;9.240;2023-06-01T14:43:04;8.65;;;5.75;;
22851;SDS011;11592;45.460;9.240;2023-06-01T14:45:31;11.25;;;5.63;;
22851;SDS011;11592;45.460;9.240;2023-06-01T14:47:58;10.02;;;6.20;;
22851;SDS011;11592;45.460;9.240;2023-06-01T14:50:25;9.10;;;5.65;;
22851;SDS011;11592;45.460;9.240;2023-06-01T14:52:52;7.63;;;5.35;;
22851;SDS011;11592;45.460;9.240;2023-06-01T14:55:25;11.48;;;6.07;;
22851;SDS011;11592;45.460;9.240;2023-06-01T14:57:53;12.05;;;5.68;;
22851;SDS011;11592;45.460;9.240;2023-06-01T15:00:20;8.77;;;5.55;;
22851;SDS011;11592;45.460;9.240;2023-06-01T15:02:47;8.27;;;5.70;;
22851;SDS011;11592;45.460;9.240;2023-06-01T15:05:15;11.85;;;5.40;;
22851;SDS011;11592;45.460;9.240;2023-06-01T15:07:42;14.60;;;6.00;;
22851;SDS011;11592;45.460;9.240;2023-06-01T15:10:10;13.10;;;5.35;;
22851;SDS011;11592;45.460;9.240;2023-06-01T15:12:37;10.70;;;5.95;;
22851;SDS011;11592;45.460;9.240;2023-06-01T15:15:04;9.85;;;5.55;;
22851;SDS011;11592;45.460;9.240;2023-06-01T15:17:31;9.90;;;5.65;;
22851;SDS011;11592;45.460;9.240;2023-06-01T15:19:58;9.73;;;5.90;;
22851;SDS011;11592;45.460;9.240;2023-06-01T15:22:25;11.13;;;5.75;;
22851;SDS011;11592;45.460;9.240;2023-06-01T15:24:52;11.27;;;5.72;;
22851;SDS011;11592;45.460;9.240;2023-06-01T15:27:19;11.60;;;5.93;;
22851;SDS011;11592;45.460;9.240;2023-06-01T15:29:46;10.45;;;5.68;;
22851;SDS011;11592;45.460;9.240;2023-06-01T15:32:13;10.07;;;5.72;;
22851;SDS011;11592;45.460;9.240;2023-06-01T15:34:40;8.88;;;5.53;;
22851;SDS011;11592;45.460;9.240;2023-06-01T15:37:09;8.02;;;4.90;;
22851;SDS011;11592;45.460;9.240;2023-06-01T15:39:36;10.43;;;6.22;;
22851;SDS011;11592;45.460;9.240;2023-06-01T15:42:08;8.05;;;5.63;;
22851;SDS011;11592;45.460;9.240;2023-06-01T15:44:39;13.00;;;5.78;;